Time;durP1;ratioP1;P1;durP2;ratioP2;P2;SDS_P1;SDS_P2;PMS_P1;PMS_P2;Temp;Humidity;BMP_temperature;BMP_pressure;BME280_temperature;BME280_humidity;BME280_pressure;Samples;Min_cycle;Max_cycle;Signal;HPM_P1;HPM_P2
2024/03/25 00:00:41;;;;;;;9.00;7.30;;;;;;;4.61;88.87;99222.84;107695;1313;22276;-64
2024/03/25 00:03:06;;;;;;;7.90;7.20;;;;;;;4.59;87.77;99218.78;107735;1313;22273;-64
2024/03/25 00:05:32;;;;;;;10.00;8.00;;;;;;;4.61;87.86;99218.23;107689;1294;22091;-65
2024/03/25 00:07:58;;;;;;;9.60;7.80;;;;;;;4.61;87.65;99220.29;107505;1313;22360;-63
2024/03/25 00:10:24;;;;;;;9.10;8.00;;;;;;;4.62;87.29;99218.23;107454;1313;22303;-62
2024/03/25 00:12:52;;;;;;;10.00;8.40;;;;;;;4.62;87.44;99215.84;107468;1312;22951;-63
2024/03/25 00:15:19;;;;;;;12.50;8.50;;;;;;;4.62;87.27;99212.92;107501;1294;22417;-62
2024/03/25 00:17:46;;;;;;;10.40;7.80;;;;;;;4.64;87.45;99210.52;107492;1313;22250;-63
2024/03/25 00:20:11;;;;;;;;;;;;;;;4.64;87.28;99208.81;107471;1313;22449;-63
2024/03/25 00:22:37;;;;;;;9.70;7.80;;;;;;;4.63;88.12;99211.38;107378;1307;22303;-62
2024/03/25 00:25:02;;;;;;;11.00;8.10;;;;;;;4.65;87.15;99210.67;107387;1291;22266;-63
2024/03/25 00:27:29;;;;;;;11.90;8.10;;;;;;;4.65;87.04;99210.84;107475;1313;22276;-62
2024/03/25 00:29:54;;;;;;;10.30;8.20;;;;;;;4.65;87.55;99213.92;107447;1313;22264;-62
2024/03/25 00:32:20;;;;;;;8.90;8.00;;;;;;;4.67;87.03;99210.14;107438;1313;22207;-63
2024/03/25 00:34:45;;;;;;;8.60;7.00;;;;;;;4.68;87.12;99211.30;107416;1313;22285;-62
2024/03/25 00:37:10;;;;;;;12.00;7.40;;;;;;;4.68;87.93;99213.02;107464;1294;22329;-62
2024/03/25 00:39:36;;;;;;;8.50;7.50;;;;;;;4.69;87.70;99214.17;107368;1313;23042;-63
2024/03/25 00:42:01;;;;;;;9.50;8.10;;;;;;;4.68;88.11;99210.95;107471;1313;23045;-62
2024/03/25 00:44:26;;;;;;;11.30;7.50;;;;;;;4.68;88.43;99210.61;107459;1313;22379;-63
2024/03/25 00:46:52;;;;;;;9.90;7.40;;;;;;;4.70;88.04;99211.09;107428;1294;22718;-62
2024/03/25 00:49:17;;;;;;;7.60;7.00;;;;;;;4.71;88.44;99207.48;107463;1313;23450;-63
2024/03/25 00:51:43;;;;;;;10.80;7.30;;;;;;;4.74;88.64;99205.56;107393;1314;22290;-62
2024/03/25 00:54:08;;;;;;;9.00;6.90;;;;;;;4.75;88.52;99202.30;107351;1314;22322;-63
2024/03/25 00:56:34;;;;;;;9.80;7.30;;;;;;;4.78;88.41;99204.99;107377;1294;22264;-63
2024/03/25 00:59:02;;;;;;;9.40;7.30;;;;;;;4.80;87.84;99203.94;107268;1315;22370;-62
2024/03/25 01:01:28;;;;;;;8.90;7.50;;;;;;;4.81;88.53;99203.41;107371;1314;22254;-62
2024/03/25 01:03:54;;;;;;;7.60;6.70;;;;;;;4.80;89.12;99203.08;107403;1313;22334;-62
2024/03/25 01:06:19;;;;;;;9.60;6.80;;;;;;;4.82;89.55;99204.94;107345;1297;22321;-64
2024/03/25 01:08:44;;;;;;;8.90;7.10;;;;;;;4.80;89.11;99204.61;107480;1313;22249;-63
2024/03/25 01:11:10;;;;;;;7.90;7.10;;;;;;;4.76;89.56;99197.67;107524;1313;25020;-62
2024/03/25 01:13:35;;;;;;;7.90;6.30;;;;;;;4.71;90.28;99197.94;107546;1312;22273;-64
2024/03/25 01:16:01;;;;;;;8.90;7.40;;;;;;;4.63;90.78;99197.71;107605;1290;23247;-63
2024/03/25 01:18:26;;;;;;;7.30;6.50;;;;;;;4.62;89.77;99197.74;107544;1313;22254;-63
2024/03/25 01:20:51;;;;;;;9.70;7.30;;;;;;;4.61;89.57;99201.17;107499;1313;22411;-63
2024/03/25 01:23:16;;;;;;;8.20;6.90;;;;;;;4.59;88.80;99196.59;107499;1313;22251;-63
2024/03/25 01:25:42;;;;;;;10.80;7.50;;;;;;;4.59;89.27;99197.45;107463;1313;22298;-63
2024/03/25 01:28:07;;;;;;;10.00;7.20;;;;;;;4.59;89.97;99198.81;107466;1294;22409;-63
2024/03/25 01:30:35;;;;;;;8.30;7.20;;;;;;;4.57;89.65;99195.42;107435;1313;22257;-63
2024/03/25 01:33:00;;;;;;;9.50;7.20;;;;;;;4.59;89.61;99202.92;107463;1313;22259;-63
2024/03/25 01:35:26;;;;;;;8.50;7.60;;;;;;;4.59;89.46;99197.80;107450;1313;22270;-64
2024/03/25 01:37:51;;;;;;;10.00;7.60;;;;;;;4.58;90.46;99198.48;107406;1293;22303;-63
2024/03/25 01:40:17;;;;;;;8.70;7.60;;;;;;;4.58;89.66;99200.19;107458;1313;22781;-63
2024/03/25 01:42:44;;;;;;;7.40;6.70;;;;;;;4.58;89.31;99202.08;107421;1313;22314;-63
2024/03/25 01:45:10;;;;;;;5.30;4.80;;;;;;;4.57;89.39;99192.53;107419;1313;23098;-64
2024/03/25 01:47:35;;;;;;;4.70;4.10;;;;;;;4.54;89.88;99191.89;107400;1293;22253;-63
2024/03/25 01:50:03;;;;;;;4.20;3.80;;;;;;;4.53;89.31;99192.59;107388;1313;22257;-63
2024/03/25 01:52:29;;;;;;;5.80;3.80;;;;;;;4.52;89.25;99192.77;107309;1313;22280;-63
2024/03/25 01:54:54;;;;;;;4.60;4.10;;;;;;;4.49;89.32;99194.36;107296;1313;22256;-63
2024/03/25 01:57:21;;;;;;;6.70;5.50;;;;;;;4.47;89.54;99193.02;107361;1291;22416;-63
2024/03/25 01:59:46;;;;;;;6.60;6.00;;;;;;;4.47;90.11;99192.34;107319;1313;22319;-63
2024/03/25 02:02:12;;;;;;;6.50;5.90;;;;;;;4.46;90.40;99192.01;107407;1313;22279;-63
2024/03/25 02:04:40;;;;;;;10.40;7.00;;;;;;;4.46;89.79;99191.84;107427;1313;22616;-63
2024/03/25 02:07:07;;;;;;;11.10;7.70;;;;;;;4.47;90.56;99189.95;107422;1291;22286;-63
2024/03/25 02:09:33;;;;;;;9.80;7.90;;;;;;;4.49;90.29;99192.48;107434;1313;22255;-63
2024/03/25 02:11:59;;;;;;;12.60;7.70;;;;;;;4.51;90.12;99191.08;107417;1313;22764;-63
2024/03/25 02:14:25;;;;;;;12.00;7.40;;;;;;;4.50;90.93;99192.13;107434;1308;22552;-63
2024/03/25 02:16:50;;;;;;;7.80;6.90;;;;;;;4.50;91.75;99191.78;107434;1302;22269;-63
2024/03/25 02:19:15;;;;;;;8.00;6.70;;;;;;;4.48;93.27;99195.39;107330;1297;22780;-63
2024/03/25 02:21:41;;;;;;;9.00;7.20;;;;;;;4.47;92.41;99192.67;107461;1313;22245;-63
2024/03/25 02:24:09;;;;;;;7.10;6.40;;;;;;;4.46;92.05;99194.21;107420;1313;22243;-63
2024/03/25 02:26:35;;;;;;;8.70;7.10;;;;;;;4.45;92.12;99194.23;107441;1313;22351;-63
2024/03/25 02:29:00;;;;;;;7.00;6.20;;;;;;;4.44;91.94;99196.82;107552;1291;22472;-65
2024/03/25 02:31:25;;;;;;;9.20;7.80;;;;;;;4.43;91.08;99194.43;107735;1313;22259;-64
2024/03/25 02:33:50;;;;;;;7.90;6.80;;;;;;;4.43;90.66;99189.83;107727;1313;22301;-65
2024/03/25 02:36:16;;;;;;;7.30;6.60;;;;;;;4.42;90.14;99190.86;107739;1313;23982;-64
2024/03/25 02:38:42;;;;;;;7.80;7.00;;;;;;;4.43;89.85;99192.55;107637;1290;22391;-63
2024/03/25 02:41:07;;;;;;;9.40;7.10;;;;;;;4.44;89.45;99197.66;107387;1313;22363;-62
2024/03/25 02:43:33;;;;;;;7.50;6.60;;;;;;;4.44;89.30;99196.30;107349;1313;22343;-63
2024/03/25 02:45:59;;;;;;;8.80;6.80;;;;;;;4.45;89.34;99195.59;107295;1313;23001;-62
2024/03/25 02:48:24;;;;;;;7.10;6.40;;;;;;;4.45;89.75;99198.67;107337;1290;22365;-62
2024/03/25 02:50:50;;;;;;;8.10;7.20;;;;;;;4.48;89.64;99202.73;107332;1313;22475;-62
2024/03/25 02:53:15;;;;;;;7.50;6.30;;;;;;;4.49;89.63;99204.23;107346;1313;22850;-62
2024/03/25 02:55:41;;;;;;;7.60;6.20;;;;;;;4.49;89.69;99203.05;107342;1313;22364;-62
2024/03/25 02:58:06;;;;;;;9.90;7.10;;;;;;;4.49;90.05;99206.98;107326;1290;22292;-63
2024/03/25 03:00:31;;;;;;;8.90;7.20;;;;;;;4.50;89.54;99206.27;107265;1313;22283;-62
2024/03/25 03:02:57;;;;;;;8.60;7.70;;;;;;;4.52;89.76;99208.13;107375;1313;22269;-63
2024/03/25 03:05:22;;;;;;;9.30;6.90;;;;;;;4.53;89.84;99209.81;107349;1313;23794;-62
2024/03/25 03:07:48;;;;;;;9.40;7.50;;;;;;;4.52;90.40;99208.48;107264;1313;23053;-63
2024/03/25 03:10:13;;;;;;;9.90;7.20;;;;;;;4.52;90.42;99211.02;107331;1291;23301;-62
2024/03/25 03:12:38;;;;;;;7.80;7.00;;;;;;;4.51;90.13;99211.73;107341;1312;22470;-62
2024/03/25 03:15:04;;;;;;;10.70;7.50;;;;;;;4.52;89.88;99212.05;107476;1312;22293;-62
2024/03/25 03:17:29;;;;;;;8.70;7.50;;;;;;;4.54;89.68;99214.25;107348;1313;22262;-62
2024/03/25 03:19:55;;;;;;;8.50;7.70;;;;;;;4.55;89.66;99213.21;107342;1291;22261;-62
2024/03/25 03:22:20;;;;;;;7.80;7.00;;;;;;;4.55;89.55;99213.38;107325;1313;22328;-63
2024/03/25 03:24:45;;;;;;;8.00;6.30;;;;;;;4.56;89.46;99213.36;107348;1313;23152;-62
2024/03/25 03:27:11;;;;;;;7.70;7.00;;;;;;;4.58;89.90;99216.92;107327;1313;22339;-63
2024/03/25 03:29:36;;;;;;;7.90;6.40;;;;;;;4.60;89.59;99218.77;107329;1291;22258;-63
2024/03/25 03:32:01;;;;;;;7.10;6.40;;;;;;;4.61;89.33;99218.05;107292;1313;22257;-62
2024/03/25 03:34:27;;;;;;;8.10;7.20;;;;;;;4.62;90.77;99218.57;107284;1313;22949;-63
2024/03/25 03:36:52;;;;;;;7.90;6.80;;;;;;;4.61;90.72;99218.92;107274;1313;22309;-63
2024/03/25 03:39:17;;;;;;;10.50;6.70;;;;;;;4.60;90.08;99219.44;107316;1294;24328;-63
2024/03/25 03:41:43;;;;;;;9.40;7.40;;;;;;;4.60;89.46;99218.60;107314;1314;22879;-62
2024/03/25 03:44:09;;;;;;;6.90;6.20;;;;;;;4.58;89.70;99222.38;107300;1314;22241;-62
2024/03/25 03:46:35;;;;;;;8.80;6.80;;;;;;;4.58;89.84;99222.39;107330;1313;22311;-62
2024/03/25 03:49:00;;;;;;;7.40;6.50;;;;;;;4.58;89.72;99224.08;107309;1291;22313;-63
2024/03/25 03:51:26;;;;;;;9.90;6.90;;;;;;;4.57;90.03;99228.36;107364;1313;22249;-63
2024/03/25 03:53:51;;;;;;;7.80;6.30;;;;;;;4.56;90.43;99228.38;107378;1313;22281;-63
2024/03/25 03:56:17;;;;;;;9.40;6.70;;;;;;;4.56;89.73;99228.71;107369;1313;23057;-63
2024/03/25 03:58:42;;;;;;;8.70;7.40;;;;;;;4.56;90.24;99231.11;107309;1313;22509;-63
2024/03/25 04:01:15;;;;;;;7.00;5.80;;;;;;;4.55;91.15;99237.44;107393;1294;22244;-63
2024/03/25 04:03:41;;;;;;;8.00;6.70;;;;;;;4.55;90.75;99236.25;107447;1312;22321;-63
2024/03/25 04:06:13;;;;;;;7.80;6.70;;;;;;;4.55;90.76;99235.91;107463;1312;22651;-63
2024/03/25 04:08:39;;;;;;;8.40;6.40;;;;;;;4.53;91.28;99237.11;107348;1313;22386;-63
2024/03/25 04:11:06;;;;;;;6.50;5.90;;;;;;;4.53;90.90;99239.69;107329;1294;22268;-63
2024/03/25 04:13:34;;;;;;;7.20;6.50;;;;;;;4.54;90.78;99239.67;107366;1312;22351;-63
2024/03/25 04:16:05;;;;;;;6.60;6.00;;;;;;;4.54;90.28;99241.20;107253;1313;22242;-63
2024/03/25 04:18:31;;;;;;;7.70;6.60;;;;;;;4.56;90.39;99245.61;107340;1313;22366;-63
2024/03/25 04:20:57;;;;;;;8.40;6.70;;;;;;;4.54;91.01;99245.30;107313;1297;22278;-63
2024/03/25 04:23:22;;;;;;;7.30;6.70;;;;;;;4.53;91.20;99247.71;107264;1313;22275;-63
2024/03/25 04:25:49;;;;;;;7.30;6.70;;;;;;;4.51;91.09;99250.29;107230;1313;22261;-63
2024/03/25 04:28:14;;;;;;;8.40;7.50;;;;;;;4.51;90.67;99250.64;107330;1313;22377;-63
2024/03/25 04:30:39;;;;;;;7.90;6.80;;;;;;;4.52;90.43;99254.21;107291;1294;22385;-63
2024/03/25 04:33:05;;;;;;;7.10;6.10;;;;;;;4.53;89.94;99255.73;107415;1312;22363;-63
2024/03/25 04:35:30;;;;;;;7.40;6.70;;;;;;;4.53;90.05;99257.42;107316;1313;22348;-63
2024/03/25 04:37:55;;;;;;;8.10;6.70;;;;;;;4.53;90.42;99261.86;107279;1310;22254;-63
2024/03/25 04:40:21;;;;;;;8.70;7.00;;;;;;;4.54;89.98;99262.88;107263;1292;22265;-63
2024/03/25 04:42:47;;;;;;;8.70;7.30;;;;;;;4.57;90.12;99267.61;107278;1307;23117;-64
2024/03/25 04:45:13;;;;;;;8.00;7.00;;;;;;;4.58;90.42;99269.65;107297;1313;22276;-63
2024/03/25 04:47:39;;;;;;;8.40;7.50;;;;;;;4.58;90.55;99272.04;107286;1304;22240;-64
2024/03/25 04:50:05;;;;;;;8.50;7.70;;;;;;;4.59;90.06;99273.40;107196;1291;23210;-63
2024/03/25 04:52:31;;;;;;;;;;;;;;;4.61;90.02;99276.95;107206;1314;22460;-63
2024/03/25 04:54:57;;;;;;;7.20;6.50;;;;;;;4.63;90.24;99278.45;107296;1313;22238;-63
2024/03/25 04:57:22;;;;;;;8.40;7.70;;;;;;;4.64;90.05;99279.80;107257;1314;22258;-63
2024/03/25 04:59:48;;;;;;;9.20;8.40;;;;;;;4.65;90.07;99285.27;107330;1313;22895;-62
2024/03/25 05:02:13;;;;;;;9.90;7.90;;;;;;;4.65;90.08;99287.83;107276;1297;22222;-62
2024/03/25 05:04:39;;;;;;;10.40;8.30;;;;;;;4.66;90.10;99291.40;107389;1308;22391;-61
2024/03/25 05:07:04;;;;;;;8.30;7.50;;;;;;;4.70;90.00;99296.27;107274;1313;22307;-62
2024/03/25 05:09:30;;;;;;;10.80;8.60;;;;;;;4.72;90.50;99299.64;107227;1313;22362;-62
2024/03/25 05:11:55;;;;;;;9.40;8.40;;;;;;;4.71;90.24;99300.00;107111;1308;22320;-61
2024/03/25 05:14:20;;;;;;;10.90;9.80;;;;;;;4.69;90.40;99303.80;107359;1313;22785;-62
2024/03/25 05:16:46;;;;;;;12.50;10.00;;;;;;;4.69;90.28;99308.04;107330;1313;22315;-61
2024/03/25 05:19:11;;;;;;;13.40;9.90;;;;;;;4.70;90.22;99308.89;107241;1306;22376;-62
2024/03/25 05:21:36;;;;;;;13.30;10.70;;;;;;;4.73;90.18;99309.36;107336;1294;22396;-63
2024/03/25 05:24:02;;;;;;;11.70;9.30;;;;;;;4.74;90.55;99312.77;107124;1307;23051;-63
2024/03/25 05:26:27;;;;;;;12.90;9.80;;;;;;;4.76;90.58;99319.73;107279;1306;22363;-63
2024/03/25 05:28:54;;;;;;;19.20;11.60;;;;;;;4.77;90.52;99317.50;107205;1305;22404;-62
2024/03/25 05:31:19;;;;;;;17.20;10.20;;;;;;;4.81;90.51;99319.84;107230;1297;22309;-63
2024/03/25 05:33:45;;;;;;;14.80;10.50;;;;;;;4.85;90.31;99318.08;107308;1313;22359;-63
2024/03/25 05:36:10;;;;;;;15.40;11.60;;;;;;;4.88;90.50;99321.63;107328;1313;22461;-62
2024/03/25 05:38:35;;;;;;;15.10;11.60;;;;;;;4.88;90.20;99325.89;107376;1313;22280;-63
2024/03/25 05:41:01;;;;;;;19.30;13.20;;;;;;;4.89;90.78;99324.69;107295;1309;22541;-62
2024/03/25 05:43:26;;;;;;;16.00;12.10;;;;;;;4.90;91.02;99324.15;107242;1297;22357;-61
2024/03/25 05:45:53;;;;;;;19.40;13.60;;;;;;;4.93;90.80;99328.38;107392;1310;22252;-62
2024/03/25 05:48:18;;;;;;;;;;;;;;;4.95;90.47;99325.45;107185;1313;22551;-63
2024/03/25 05:50:43;;;;;;;15.30;12.40;;;;;;;4.96;90.80;99329.19;107360;1305;22306;-63
2024/03/25 05:53:09;;;;;;;18.70;13.30;;;;;;;4.95;90.84;99330.23;107320;1297;22318;-63
2024/03/25 05:55:34;;;;;;;18.70;14.10;;;;;;;4.97;90.32;99336.52;107323;1313;22677;-63
2024/03/25 05:58:00;;;;;;;17.80;13.70;;;;;;;4.98;90.45;99341.11;107307;1313;22331;-63
2024/03/25 06:00:26;;;;;;;19.10;14.50;;;;;;;4.98;90.49;99338.21;107397;1313;22291;-63
2024/03/25 06:02:53;;;;;;;18.00;14.30;;;;;;;5.06;90.57;99345.80;107280;1298;22689;-63
2024/03/25 06:05:19;;;;;;;14.80;13.30;;;;;;;5.11;90.82;99350.00;107394;1313;23209;-63
2024/03/25 06:07:44;;;;;;;14.30;12.30;;;;;;;5.12;90.83;99350.84;107378;1313;22310;-63
2024/03/25 06:10:10;;;;;;;12.90;11.00;;;;;;;5.14;90.82;99355.59;107299;1313;22287;-62
2024/03/25 06:12:35;;;;;;;13.00;11.70;;;;;;;5.17;90.73;99357.95;107258;1292;22439;-61
2024/03/25 06:15:00;;;;;;;12.10;10.70;;;;;;;5.17;91.29;99360.51;107292;1313;22408;-61
2024/03/25 06:17:26;;;;;;;12.70;11.30;;;;;;;5.20;91.50;99361.11;107288;1313;22263;-62
2024/03/25 06:19:52;;;;;;;13.70;10.70;;;;;;;5.20;91.92;99363.50;107283;1313;23438;-61
2024/03/25 06:22:17;;;;;;;11.60;10.40;;;;;;;5.24;91.42;99366.67;107287;1304;22549;-61
2024/03/25 06:24:44;;;;;;;11.60;10.60;;;;;;;5.29;91.39;99366.61;107410;1312;22886;-61
2024/03/25 06:27:09;;;;;;;12.10;9.40;;;;;;;5.35;91.71;99370.63;107389;1313;22950;-61
2024/03/25 06:29:35;;;;;;;11.50;10.30;;;;;;;5.35;92.62;99380.03;107213;1313;22389;-62
2024/03/25 06:34:44;;;;;;;10.10;9.00;;;;;;;5.38;92.33;99381.02;107280;1306;22324;-62
2024/03/25 06:37:10;;;;;;;10.80;9.90;;;;;;;5.40;92.30;99384.23;107280;1313;22948;-62
2024/03/25 06:39:35;;;;;;;10.40;9.50;;;;;;;5.42;92.66;99387.95;107292;1313;22539;-62
2024/03/25 06:42:01;;;;;;;10.50;9.10;;;;;;;5.42;92.10;99389.34;107105;1313;22211;-62
2024/03/25 06:44:26;;;;;;;11.40;9.10;;;;;;;5.41;92.91;99387.46;107273;1300;22301;-62
2024/03/25 06:46:51;;;;;;;11.30;10.00;;;;;;;5.46;92.53;99391.48;107284;1313;22328;-62
2024/03/25 06:49:17;;;;;;;10.10;9.20;;;;;;;5.50;92.23;99396.04;107283;1313;22301;-61
2024/03/25 06:51:42;;;;;;;11.50;10.50;;;;;;;5.56;92.64;99395.62;107302;1313;22260;-61
2024/03/25 06:54:07;;;;;;;10.40;9.40;;;;;;;5.66;92.25;99397.16;107183;1308;23011;-61
2024/03/25 06:56:32;;;;;;;10.30;9.30;;;;;;;5.76;92.57;99403.31;107282;1313;22266;-61
2024/03/25 06:58:58;;;;;;;11.10;10.10;;;;;;;5.83;92.60;99408.15;107290;1313;25097;-61
2024/03/25 07:01:23;;;;;;;11.00;10.00;;;;;;;5.89;92.52;99411.50;107301;1307;23383;-61
2024/03/25 07:03:48;;;;;;;10.20;9.20;;;;;;;5.91;92.52;99414.71;107321;1305;22283;-61
2024/03/25 07:06:14;;;;;;;11.40;10.30;;;;;;;5.90;92.21;99420.04;107281;1313;22236;-61
2024/03/25 07:08:39;;;;;;;12.10;10.90;;;;;;;5.86;92.46;99421.97;107291;1313;22278;-61
2024/03/25 07:11:05;;;;;;;12.70;11.40;;;;;;;5.90;92.76;99425.85;107268;1313;22334;-61
2024/03/25 07:13:30;;;;;;;12.80;11.20;;;;;;;5.93;92.29;99430.60;107291;1291;22311;-61
2024/03/25 07:15:55;;;;;;;12.20;10.90;;;;;;;5.92;92.67;99434.53;107244;1303;22512;-62
2024/03/25 07:18:21;;;;;;;12.00;10.60;;;;;;;5.87;92.81;99437.86;107296;1313;22238;-61
2024/03/25 07:20:46;;;;;;;11.50;10.40;;;;;;;5.81;93.05;99439.64;107155;1313;162456;-62
2024/03/25 07:23:12;;;;;;;11.40;10.30;;;;;;;5.76;94.00;99444.02;107329;1312;22293;-62
2024/03/25 07:25:37;;;;;;;12.30;11.10;;;;;;;5.70;94.20;99443.60;107304;1291;22302;-61
2024/03/25 07:28:03;;;;;;;12.20;11.10;;;;;;;5.66;93.03;99447.26;107293;1313;22257;-61
2024/03/25 07:30:28;;;;;;;13.40;11.00;;;;;;;5.67;93.50;99448.27;107338;1313;22250;-63
2024/03/25 07:32:54;;;;;;;11.40;10.30;;;;;;;5.69;93.23;99451.15;107269;1308;22400;-63
2024/03/25 07:35:20;;;;;;;14.00;11.00;;;;;;;5.66;94.14;99454.27;107385;1291;22338;-63
2024/03/25 07:37:45;;;;;;;15.70;11.60;;;;;;;5.66;93.67;99457.52;107400;1313;22271;-63
2024/03/25 07:40:14;;;;;;;11.50;10.50;;;;;;;5.76;93.03;99462.13;107391;1313;22239;-63
2024/03/25 07:42:39;;;;;;;12.70;10.60;;;;;;;5.84;92.83;99462.86;107399;1313;22232;-63
2024/03/25 07:45:05;;;;;;;11.70;10.50;;;;;;;5.87;93.08;99467.60;107383;1294;22276;-63
2024/03/25 07:47:32;;;;;;;11.10;10.00;;;;;;;5.84;94.76;99470.04;107386;1307;22387;-63
2024/03/25 07:49:59;;;;;;;10.70;9.70;;;;;;;5.79;95.14;99471.14;107413;1313;22311;-63
2024/03/25 07:52:24;;;;;;;;;;;;;;;5.77;95.00;99473.40;107428;1307;22438;-63
2024/03/25 07:54:49;;;;;;;11.40;10.30;;;;;;;5.76;94.45;99478.70;107375;1294;22283;-63
2024/03/25 07:57:15;;;;;;;11.90;10.60;;;;;;;5.80;94.34;99482.59;107397;1313;23580;-63
2024/03/25 07:59:40;;;;;;;11.80;10.60;;;;;;;5.85;94.15;99485.42;107393;1313;22255;-63
2024/03/25 08:02:05;;;;;;;13.00;11.00;;;;;;;5.91;93.88;99487.41;107410;1313;24332;-63
2024/03/25 08:04:31;;;;;;;11.90;10.70;;;;;;;5.97;93.84;99490.73;107426;1291;22358;-63
2024/03/25 08:06:56;;;;;;;12.40;11.10;;;;;;;6.06;93.93;99494.54;107403;1312;22307;-67
2024/03/25 08:09:21;;;;;;;10.60;9.50;;;;;;;6.11;93.90;99496.86;107401;1313;22281;-63
2024/03/25 08:11:47;;;;;;;10.70;9.60;;;;;;;6.07;94.19;99499.32;107399;1313;22278;-63
2024/03/25 08:14:12;;;;;;;11.00;9.90;;;;;;;6.08;93.74;99504.61;107287;1302;22365;-63
2024/03/25 08:16:38;;;;;;;11.80;10.00;;;;;;;6.12;94.02;99507.11;107400;1294;22239;-62
2024/03/25 08:19:04;;;;;;;10.20;9.40;;;;;;;6.11;94.00;99510.20;107403;1313;22779;-63
2024/03/25 08:21:29;;;;;;;10.10;9.20;;;;;;;6.10;94.20;99512.27;107416;1313;22449;-63
2024/03/25 08:23:54;;;;;;;10.70;9.60;;;;;;;6.06;93.84;99519.17;107334;1312;22343;-62
2024/03/25 08:26:20;;;;;;;10.20;9.30;;;;;;;6.10;93.31;99523.73;107474;1293;23188;-63
2024/03/25 08:28:45;;;;;;;13.00;8.60;;;;;;;6.18;93.47;99525.83;107443;1313;22323;-63
2024/03/25 08:31:10;;;;;;;10.50;9.50;;;;;;;6.20;93.18;99528.37;107428;1313;22364;-63
2024/03/25 08:33:36;;;;;;;11.10;10.10;;;;;;;6.28;93.12;99526.84;107425;1313;22261;-63
2024/03/25 08:36:01;;;;;;;9.70;8.70;;;;;;;6.39;93.58;99526.17;107442;1293;22223;-63
2024/03/25 08:38:27;;;;;;;9.50;8.70;;;;;;;6.42;93.85;99529.70;107412;1313;22231;-63
2024/03/25 08:40:52;;;;;;;8.70;8.00;;;;;;;6.46;93.92;99531.01;107360;1313;22340;-59
2024/03/25 08:43:18;;;;;;;9.40;8.50;;;;;;;6.48;94.07;99535.75;107326;1313;22264;-60
2024/03/25 08:45:46;;;;;;;9.20;8.20;;;;;;;6.52;94.01;99541.00;107212;1294;22300;-60
2024/03/25 08:48:11;;;;;;;9.70;8.20;;;;;;;6.60;94.30;99542.23;107235;1310;22232;-61
2024/03/25 08:50:37;;;;;;;8.20;7.60;;;;;;;6.69;94.21;99543.80;107328;1313;22365;-60
2024/03/25 08:53:03;;;;;;;10.20;8.20;;;;;;;6.70;94.49;99547.04;107325;1313;22300;-61
2024/03/25 08:55:29;;;;;;;7.90;7.20;;;;;;;6.68;94.27;99548.96;107331;1290;22274;-60
2024/03/25 08:57:54;;;;;;;4.80;4.40;;;;;;;6.74;93.52;99549.35;107299;1313;22261;-60
2024/03/25 09:00:19;;;;;;;3.50;3.20;;;;;;;6.82;93.17;99550.22;107336;1313;22391;-60
2024/03/25 09:02:45;;;;;;;3.40;3.20;;;;;;;6.90;92.74;99548.88;107334;1313;22255;-61
2024/03/25 09:05:10;;;;;;;3.30;3.00;;;;;;;7.08;93.22;99551.80;107314;1298;22243;-61
2024/03/25 09:07:36;;;;;;;3.20;2.90;;;;;;;7.45;93.34;99553.29;107337;1291;22258;-61
2024/03/25 09:12:45;;;;;;;3.50;3.20;;;;;;;7.89;90.76;99559.02;107338;1313;22278;-61
2024/03/25 09:15:10;;;;;;;4.20;2.80;;;;;;;7.91;90.85;99558.09;107348;1313;22281;-60
2024/03/25 09:17:36;;;;;;;5.30;4.90;;;;;;;7.93;91.22;99557.89;107297;1305;22322;-60
2024/03/25 09:20:04;;;;;;;5.50;5.00;;;;;;;8.07;92.04;99562.73;107353;1313;22181;-61
2024/03/25 09:22:29;;;;;;;5.80;5.30;;;;;;;8.19;92.15;99562.63;107352;1312;22282;-60
2024/03/25 09:24:54;;;;;;;7.40;6.70;;;;;;;8.11;90.23;99567.27;107275;1312;22783;-60
2024/03/25 09:27:20;;;;;;;7.60;7.00;;;;;;;8.01;91.61;99570.92;107343;1290;22332;-60
2024/03/25 09:29:45;;;;;;;7.10;6.60;;;;;;;8.09;92.13;99570.23;107346;1313;22276;-59
2024/03/25 09:32:10;;;;;;;8.30;6.70;;;;;;;8.05;91.49;99570.67;107318;1313;23417;-60
2024/03/25 09:34:36;;;;;;;8.20;7.50;;;;;;;7.89;91.48;99576.50;107335;1313;23422;-61
2024/03/25 09:37:01;;;;;;;8.00;7.30;;;;;;;7.74;91.50;99577.71;107301;1291;23056;-61
2024/03/25 09:39:26;;;;;;;8.10;7.50;;;;;;;7.60;91.65;99586.39;107309;1313;22285;-59
2024/03/25 09:41:55;;;;;;;8.50;7.80;;;;;;;7.53;91.85;99590.52;107227;1313;22304;-61
2024/03/25 09:44:24;;;;;;;9.40;8.40;;;;;;;7.54;92.17;99590.33;107329;1313;22974;-59
2024/03/25 09:46:51;;;;;;;9.60;8.70;;;;;;;7.57;92.24;99593.50;107302;1293;23039;-60
2024/03/25 09:49:17;;;;;;;8.90;8.10;;;;;;;7.60;92.31;99599.09;107231;1313;22129;-62
2024/03/25 09:51:42;;;;;;;8.50;7.80;;;;;;;7.55;91.65;99600.58;107249;1313;23060;-64
2024/03/25 09:54:08;;;;;;;9.00;8.20;;;;;;;7.45;91.45;99602.84;107236;1314;23002;-64
2024/03/25 09:56:34;;;;;;;8.80;8.10;;;;;;;7.42;92.53;99606.33;107197;1291;23058;-64
2024/03/25 09:58:59;;;;;;;8.60;7.80;;;;;;;7.48;92.81;99607.91;107227;1314;22255;-64
2024/03/25 10:01:25;;;;;;;7.70;7.00;;;;;;;7.56;93.03;99609.46;107245;1314;22196;-64
2024/03/25 10:03:51;;;;;;;7.10;6.60;;;;;;;7.68;92.25;99612.31;107215;1314;22301;-64
2024/03/25 10:06:16;;;;;;;7.90;7.20;;;;;;;7.62;91.68;99610.22;107134;1314;22274;-64
2024/03/25 10:08:41;;;;;;;7.10;6.50;;;;;;;7.64;92.30;99610.52;107219;1292;22190;-64
2024/03/25 10:11:07;;;;;;;6.30;5.80;;;;;;;7.64;91.32;99610.69;107248;1314;23244;-65
2024/03/25 10:13:32;;;;;;;6.80;6.30;;;;;;;7.70;91.98;99610.23;107220;1314;23011;-65
2024/03/25 10:15:58;;;;;;;6.60;6.00;;;;;;;8.09;92.61;99610.23;107223;1314;22995;-64
2024/03/25 10:18:23;;;;;;;6.80;6.30;;;;;;;8.55;91.04;99611.05;107126;1293;22269;-65
2024/03/25 10:20:52;;;;;;;5.30;4.90;;;;;;;9.68;88.74;99613.86;107247;1305;22678;-65
2024/03/25 10:23:25;;;;;;;5.30;4.30;;;;;;;11.23;80.98;99607.52;107114;1314;22299;-65
2024/03/25 10:25:55;;;;;;;3.70;3.40;;;;;;;12.65;78.32;99606.27;107256;1313;22260;-65
2024/03/25 10:28:21;;;;;;;4.00;3.70;;;;;;;14.06;80.02;99607.52;107214;1297;22262;-63
2024/03/25 10:30:47;;;;;;;2.90;2.60;;;;;;;14.79;74.83;99606.33;107235;1314;23161;-63
2024/03/25 10:33:12;;;;;;;3.20;3.00;;;;;;;14.51;71.25;99607.02;107236;1314;22296;-63
2024/03/25 10:35:39;;;;;;;2.60;2.50;;;;;;;13.37;67.96;99606.87;107251;1314;23004;-63
2024/03/25 10:38:10;;;;;;;2.60;2.40;;;;;;;13.28;70.32;99611.42;107222;1293;22335;-63
2024/03/25 10:40:37;;;;;;;3.50;3.00;;;;;;;13.82;69.79;99613.21;107230;1314;22280;-63
2024/03/25 10:43:03;;;;;;;3.00;2.80;;;;;;;13.24;71.89;99611.25;107223;1314;22318;-63
2024/03/25 10:45:30;;;;;;;2.90;2.70;;;;;;;12.78;74.88;99608.70;107229;1314;23068;-64
2024/03/25 10:48:02;;;;;;;3.40;3.10;;;;;;;12.89;73.36;99610.33;107217;1292;22221;-64
2024/03/25 10:50:29;;;;;;;3.00;2.80;;;;;;;14.23;78.12;99610.07;107210;1314;22535;-64
2024/03/25 10:52:56;;;;;;;;;;;;;;;14.49;79.53;99612.65;107234;1314;22527;-63
2024/03/25 10:55:22;;;;;;;2.50;2.30;;;;;;;14.01;78.34;99620.11;107234;1314;22775;-63
2024/03/25 10:57:48;;;;;;;3.20;2.50;;;;;;;13.56;78.56;99624.43;107224;1291;23114;-63
2024/03/25 11:00:15;;;;;;;2.30;2.20;;;;;;;13.31;75.15;99626.05;107127;1314;22288;-59
2024/03/25 11:02:43;;;;;;;;;;;;;;;14.32;82.48;99625.36;107191;1314;22432;-58
2024/03/25 11:05:10;;;;;;;2.50;2.30;;;;;;;15.82;68.73;99616.41;107277;1314;22926;-58
2024/03/25 11:07:37;;;;;;;2.30;2.10;;;;;;;14.72;62.55;99621.75;107275;1304;22794;-59
2024/03/25 11:10:07;;;;;;;3.90;2.20;;;;;;;13.66;68.06;99628.98;107201;1296;22272;-59
2024/03/25 11:12:37;;;;;;;2.30;2.10;;;;;;;13.28;74.09;99627.22;107170;1314;23229;-59
2024/03/25 11:15:04;;;;;;;2.80;2.60;;;;;;;13.06;75.73;99632.81;107180;1314;23098;-58
2024/03/25 11:17:30;;;;;;;2.50;2.40;;;;;;;12.79;74.69;99633.92;107268;1314;22302;-58
2024/03/25 11:20:16;;;;;;;2.80;2.60;;;;;;;12.50;76.17;99635.47;107114;1293;22340;-59
2024/03/25 11:22:53;;;;;;;2.60;2.40;;;;;;;12.29;76.97;99636.98;107368;1312;22261;-59
2024/03/25 11:25:20;;;;;;;;;;;;;;;12.01;76.48;99639.79;107455;1312;22414;-60
2024/03/25 11:27:46;;;;;;;3.40;3.10;;;;;;;11.66;77.12;99640.71;107418;1312;22249;-58